sensor_id;sensor_type;location;lat;lon;timestamp;pressure;altitude;pressure_sealevel;temperature;humidity
8949;BME280;4509;51.522;9.910;2022-08-21T00:01:36;99994.34;;;16.14;98.74
8949;BME280;4509;51.522;9.910;2022-08-21T00:04:05;99990.34;;;16.10;100.00
8949;BME280;4509;51.522;9.910;2022-08-21T00:06:32;99993.94;;;16.09;99.09
8949;BME280;4509;51.522;9.910;2022-08-21T00:08:59;99996.19;;;16.04;99.67
8949;BME280;4509;51.522;9.910;2022-08-21T00:11:26;99996.88;;;16.06;99.44
8949;BME280;4509;51.522;9.910;2022-08-21T00:13:53;99992.97;;;16.10;100.00
8949;BME280;4509;51.522;9.910;2022-08-21T00:16:20;99991.69;;;16.14;98.39
8949;BME280;4509;51.522;9.910;2022-08-21T00:18:49;99993.81;;;16.11;98.85
8949;BME280;4509;51.522;9.910;2022-08-21T00:21:16;99985.59;;;16.04;100.00
8949;BME280;4509;51.522;9.910;2022-08-21T00:23:43;99988.53;;;16.01;100.00
8949;BME280;4509;51.522;9.910;2022-08-21T00:26:10;99988.09;;;16.06;97.87
8949;BME280;4509;51.522;9.910;2022-08-21T00:28:37;99983.78;;;16.05;98.52
8949;BME280;4509;51.522;9.910;2022-08-21T00:31:04;99985.75;;;16.03;98.38
8949;BME280;4509;51.522;9.910;2022-08-21T00:33:32;99989.63;;;15.99;97.16
8949;BME280;4509;51.522;9.910;2022-08-21T00:36:01;99980.34;;;15.95;98.65
8949;BME280;4509;51.522;9.910;2022-08-21T00:38:28;99989.63;;;15.99;97.59
8949;BME280;4509;51.522;9.910;2022-08-21T00:40:57;99983.25;;;15.91;98.37
8949;BME280;4509;51.522;9.910;2022-08-21T00:43:32;99983.94;;;15.84;100.00
8949;BME280;4509;51.522;9.910;2022-08-21T00:45:59;99979.22;;;15.87;97.08
8949;BME280;4509;51.522;9.910;2022-08-21T00:48:27;99981.56;;;15.81;98.22
8949;BME280;4509;51.522;9.910;2022-08-21T00:50:57;99982.84;;;15.77;96.76
8949;BME280;4509;51.522;9.910;2022-08-21T00:53:27;99972.81;;;15.71;98.03
8949;BME280;4509;51.522;9.910;2022-08-21T00:55:54;99973.38;;;15.65;98.39
8949;BME280;4509;51.522;9.910;2022-08-21T00:58:23;99967.50;;;15.61;97.39
8949;BME280;4509;51.522;9.910;2022-08-21T01:00:50;99975.56;;;15.59;97.97
8949;BME280;4509;51.522;9.910;2022-08-21T01:03:19;99973.94;;;15.58;97.27
8949;BME280;4509;51.522;9.910;2022-08-21T01:05:47;99977.53;;;15.57;98.54
8949;BME280;4509;51.522;9.910;2022-08-21T01:08:15;99976.13;;;15.53;97.44
8949;BME280;4509;51.522;9.910;2022-08-21T01:10:45;99987.50;;;15.44;100.00
8949;BME280;4509;51.522;9.910;2022-08-21T01:13:15;99982.06;;;15.46;99.39
8949;BME280;4509;51.522;9.910;2022-08-21T01:15:46;99976.09;;;15.44;97.84
8949;BME280;4509;51.522;9.910;2022-08-21T01:18:16;99973.56;;;15.42;97.64
8949;BME280;4509;51.522;9.910;2022-08-21T01:20:57;99973.03;;;15.39;97.18
8949;BME280;4509;51.522;9.910;2022-08-21T01:23:25;99968.03;;;15.36;97.54
8949;BME280;4509;51.522;9.910;2022-08-21T01:25:51;99979.84;;;15.32;98.41
8949;BME280;4509;51.522;9.910;2022-08-21T01:28:19;99976.63;;;15.28;97.71
8949;BME280;4509;51.522;9.910;2022-08-21T01:30:48;99982.16;;;15.25;97.66
8949;BME280;4509;51.522;9.910;2022-08-21T01:33:17;99981.75;;;15.20;99.27
8949;BME280;4509;51.522;9.910;2022-08-21T01:35:44;99979.25;;;15.18;97.50
8949;BME280;4509;51.522;9.910;2022-08-21T01:38:14;99976.03;;;15.15;97.58
8949;BME280;4509;51.522;9.910;2022-08-21T01:40:41;99980.06;;;15.09;97.76
8949;BME280;4509;51.522;9.910;2022-08-21T01:43:08;99974.19;;;15.06;97.79
8949;BME280;4509;51.522;9.910;2022-08-21T01:45:35;99975.28;;;14.94;100.00
8949;BME280;4509;51.522;9.910;2022-08-21T01:48:03;99978.50;;;14.97;98.86
8949;BME280;4509;51.522;9.910;2022-08-21T01:50:30;99977.78;;;14.95;100.00
8949;BME280;4509;51.522;9.910;2022-08-21T01:52:57;99974.31;;;14.95;100.00
8949;BME280;4509;51.522;9.910;2022-08-21T01:55:26;99968.78;;;14.98;98.51
8949;BME280;4509;51.522;9.910;2022-08-21T01:57:54;99980.44;;;14.95;100.00
8949;BME280;4509;51.522;9.910;2022-08-21T02:00:23;99980.44;;;14.95;100.00
8949;BME280;4509;51.522;9.910;2022-08-21T02:02:50;76447.22;;;14.88;97.31
8949;BME280;4509;51.522;9.910;2022-08-21T02:05:18;62159.16;;;-141.57;100.00
8949;BME280;4509;51.522;9.910;2022-08-21T02:07:47;99967.19;;;14.85;97.95
8949;BME280;4509;51.522;9.910;2022-08-21T02:10:17;99968.31;;;14.83;99.26
8949;BME280;4509;51.522;9.910;2022-08-21T02:12:46;99971.22;;;14.80;97.04
8949;BME280;4509;51.522;9.910;2022-08-21T02:15:13;99974.47;;;14.63;100.00
8949;BME280;4509;51.522;9.910;2022-08-21T02:17:42;62159.16;;;-141.57;100.00
8949;BME280;4509;51.522;9.910;2022-08-21T02:20:12;81213.38;;;14.63;90.30
8949;BME280;4509;51.522;9.910;2022-08-21T02:22:41;99962.13;;;14.63;99.18
8949;BME280;4509;51.522;9.910;2022-08-21T02:25:10;99966.44;;;14.64;0.00
8949;BME280;4509;51.522;9.910;2022-08-21T02:27:39;99966.44;;;14.64;100.00
8949;BME280;4509;51.522;9.910;2022-08-21T02:30:10;62159.16;;;-141.57;100.00
8949;BME280;4509;51.522;9.910;2022-08-21T02:32:38;62159.16;;;-141.57;100.00
8949;BME280;4509;51.522;9.910;2022-08-21T02:35:06;81213.38;;;14.63;100.00
8949;BME280;4509;51.522;9.910;2022-08-21T02:37:33;62159.16;;;14.63;100.00
8949;BME280;4509;51.522;9.910;2022-08-21T02:40:01;113381.50;;;14.63;100.00
8949;BME280;4509;51.522;9.910;2022-08-21T02:42:27;99958.28;;;14.46;100.00
8949;BME280;4509;51.522;9.910;2022-08-21T02:44:55;62159.16;;;-141.57;100.00
8949;BME280;4509;51.522;9.910;2022-08-21T02:47:25;99958.28;;;14.46;100.00
8949;BME280;4509;51.522;9.910;2022-08-21T02:49:52;62159.16;;;-141.57;100.00
8949;BME280;4509;51.522;9.910;2022-08-21T02:52:22;62159.16;;;-141.57;100.00
8949;BME280;4509;51.522;9.910;2022-08-21T02:54:49;62159.16;;;-141.57;100.00
8949;BME280;4509;51.522;9.910;2022-08-21T02:57:16;62159.16;;;-141.57;100.00
8949;BME280;4509;51.522;9.910;2022-08-21T02:59:43;62159.16;;;-141.57;100.00
8949;BME280;4509;51.522;9.910;2022-08-21T03:02:10;62159.16;;;-141.57;100.00
8949;BME280;4509;51.522;9.910;2022-08-21T03:04:39;62159.16;;;-141.57;100.00
8949;BME280;4509;51.522;9.910;2022-08-21T03:07:06;62159.16;;;-141.57;100.00
8949;BME280;4509;51.522;9.910;2022-08-21T03:09:33;62159.16;;;-141.57;100.00
8949;BME280;4509;51.522;9.910;2022-08-21T03:12:00;62159.16;;;-141.57;100.00
8949;BME280;4509;51.522;9.910;2022-08-21T03:14:27;62159.16;;;-141.57;100.00
8949;BME280;4509;51.522;9.910;2022-08-21T03:16:54;62159.16;;;-141.57;100.00
8949;BME280;4509;51.522;9.910;2022-08-21T03:19:20;62159.16;;;-141.57;100.00
8949;BME280;4509;51.522;9.910;2022-08-21T03:21:49;62159.16;;;-141.57;100.00
8949;BME280;4509;51.522;9.910;2022-08-21T03:24:16;62159.16;;;-141.57;100.00
8949;BME280;4509;51.522;9.910;2022-08-21T03:26:43;62159.16;;;-141.57;100.00
8949;BME280;4509;51.522;9.910;2022-08-21T03:29:10;62159.16;;;-141.57;100.00
8949;BME280;4509;51.522;9.910;2022-08-21T03:31:37;62159.16;;;-141.57;100.00
8949;BME280;4509;51.522;9.910;2022-08-21T03:34:05;62159.16;;;-141.57;100.00
8949;BME280;4509;51.522;9.910;2022-08-21T03:36:32;62159.16;;;-141.57;100.00
8949;BME280;4509;51.522;9.910;2022-08-21T03:39:02;62159.16;;;-141.57;100.00
8949;BME280;4509;51.522;9.910;2022-08-21T03:41:30;62159.16;;;-141.57;100.00
8949;BME280;4509;51.522;9.910;2022-08-21T03:43:57;62159.16;;;-141.57;100.00
8949;BME280;4509;51.522;9.910;2022-08-21T03:46:24;62159.16;;;-141.57;100.00
8949;BME280;4509;51.522;9.910;2022-08-21T03:48:51;62159.16;;;-141.57;100.00
8949;BME280;4509;51.522;9.910;2022-08-21T03:51:18;62159.16;;;-141.57;100.00
8949;BME280;4509;51.522;9.910;2022-08-21T03:53:45;62159.16;;;-141.57;100.00
8949;BME280;4509;51.522;9.910;2022-08-21T03:56:14;62159.16;;;-141.57;100.00
8949;BME280;4509;51.522;9.910;2022-08-21T03:58:42;62159.16;;;-141.57;100.00
8949;BME280;4509;51.522;9.910;2022-08-21T04:01:09;62159.16;;;-141.57;100.00
8949;BME280;4509;51.522;9.910;2022-08-21T04:03:36;62159.16;;;-141.57;100.00
8949;BME280;4509;51.522;9.910;2022-08-21T04:06:04;62159.16;;;-141.57;100.00
8949;BME280;4509;51.522;9.910;2022-08-21T04:08:31;62159.16;;;-141.57;100.00
8949;BME280;4509;51.522;9.910;2022-08-21T04:10:59;62159.16;;;-141.57;100.00
8949;BME280;4509;51.522;9.910;2022-08-21T04:13:28;62159.16;;;-141.57;100.00
8949;BME280;4509;51.522;9.910;2022-08-21T04:15:55;62159.16;;;-141.57;100.00
8949;BME280;4509;51.522;9.910;2022-08-21T04:18:23;62159.16;;;-141.57;100.00
8949;BME280;4509;51.522;9.910;2022-08-21T04:20:51;62159.16;;;-141.57;100.00
8949;BME280;4509;51.522;9.910;2022-08-21T04:23:18;62159.16;;;-141.57;100.00
8949;BME280;4509;51.522;9.910;2022-08-21T04:25:45;62159.16;;;-141.57;100.00
8949;BME280;4509;51.522;9.910;2022-08-21T04:28:12;62159.16;;;-141.57;100.00
8949;BME280;4509;51.522;9.910;2022-08-21T04:30:41;62159.16;;;-141.57;100.00
8949;BME280;4509;51.522;9.910;2022-08-21T04:33:07;62159.16;;;-141.57;100.00
8949;BME280;4509;51.522;9.910;2022-08-21T04:35:34;62159.16;;;-141.57;100.00
8949;BME280;4509;51.522;9.910;2022-08-21T04:38:01;62159.16;;;-141.57;100.00
8949;BME280;4509;51.522;9.910;2022-08-21T04:40:28;62159.16;;;-141.57;100.00
8949;BME280;4509;51.522;9.910;2022-08-21T04:42:57;62159.16;;;-141.57;100.00
8949;BME280;4509;51.522;9.910;2022-08-21T04:45:28;62159.16;;;-141.57;100.00
8949;BME280;4509;51.522;9.910;2022-08-21T04:47:58;62159.16;;;-141.57;100.00
8949;BME280;4509;51.522;9.910;2022-08-21T04:50:29;62159.16;;;-141.57;100.00
8949;BME280;4509;51.522;9.910;2022-08-21T04:52:56;62159.16;;;-141.57;100.00
8949;BME280;4509;51.522;9.910;2022-08-21T04:55:24;62159.16;;;-141.57;100.00
8949;BME280;4509;51.522;9.910;2022-08-21T04:57:52;62159.16;;;-141.57;100.00
8949;BME280;4509;51.522;9.910;2022-08-21T05:00:20;62159.16;;;-141.57;100.00
8949;BME280;4509;51.522;9.910;2022-08-21T05:02:49;62159.16;;;-141.57;100.00
8949;BME280;4509;51.522;9.910;2022-08-21T05:05:20;62159.16;;;-141.57;100.00
8949;BME280;4509;51.522;9.910;2022-08-21T05:07:48;62159.16;;;-141.57;100.00
8949;BME280;4509;51.522;9.910;2022-08-21T05:10:15;62159.16;;;-141.57;100.00
8949;BME280;4509;51.522;9.910;2022-08-21T05:12:42;62159.16;;;-141.57;100.00
8949;BME280;4509;51.522;9.910;2022-08-21T05:15:11;62159.16;;;-141.57;100.00
8949;BME280;4509;51.522;9.910;2022-08-21T05:17:38;62159.16;;;-141.57;100.00
8949;BME280;4509;51.522;9.910;2022-08-21T05:20:05;62159.16;;;-141.57;100.00
8949;BME280;4509;51.522;9.910;2022-08-21T05:22:34;62159.16;;;-141.57;100.00
8949;BME280;4509;51.522;9.910;2022-08-21T05:25:01;62159.16;;;-141.57;100.00
8949;BME280;4509;51.522;9.910;2022-08-21T05:27:27;62159.16;;;-141.57;100.00
8949;BME280;4509;51.522;9.910;2022-08-21T05:29:55;62159.16;;;-141.57;100.00
8949;BME280;4509;51.522;9.910;2022-08-21T05:32:22;62159.16;;;-141.57;100.00
8949;BME280;4509;51.522;9.910;2022-08-21T05:34:49;62159.16;;;-141.57;100.00
8949;BME280;4509;51.522;9.910;2022-08-21T05:37:16;62159.16;;;-141.57;100.00
8949;BME280;4509;51.522;9.910;2022-08-21T05:39:44;62159.16;;;-141.57;100.00
8949;BME280;4509;51.522;9.910;2022-08-21T05:42:11;62159.16;;;-141.57;100.00
8949;BME280;4509;51.522;9.910;2022-08-21T05:44:37;62159.16;;;-141.57;100.00
8949;BME280;4509;51.522;9.910;2022-08-21T05:47:05;62159.16;;;-141.57;100.00
8949;BME280;4509;51.522;9.910;2022-08-21T05:49:32;62159.16;;;-141.57;100.00
8949;BME280;4509;51.522;9.910;2022-08-21T05:51:59;62159.16;;;-141.57;100.00
8949;BME280;4509;51.522;9.910;2022-08-21T05:54:27;62159.16;;;-141.57;100.00
8949;BME280;4509;51.522;9.910;2022-08-21T05:56:55;62159.16;;;-141.57;100.00
8949;BME280;4509;51.522;9.910;2022-08-21T05:59:22;62159.16;;;-141.57;100.00
8949;BME280;4509;51.522;9.910;2022-08-21T06:01:49;62159.16;;;-141.57;100.00
8949;BME280;4509;51.522;9.910;2022-08-21T06:04:18;62159.16;;;-141.57;100.00
8949;BME280;4509;51.522;9.910;2022-08-21T06:06:44;62159.16;;;-141.57;100.00
8949;BME280;4509;51.522;9.910;2022-08-21T06:09:12;62159.16;;;-141.57;100.00
8949;BME280;4509;51.522;9.910;2022-08-21T06:11:39;62159.16;;;-141.57;100.00
8949;BME280;4509;51.522;9.910;2022-08-21T06:14:07;62159.16;;;-141.57;100.00
8949;BME280;4509;51.522;9.910;2022-08-21T06:16:33;62159.16;;;-141.57;100.00
8949;BME280;4509;51.522;9.910;2022-08-21T06:19:00;62159.16;;;-141.57;100.00
8949;BME280;4509;51.522;9.910;2022-08-21T06:21:27;62159.16;;;-141.57;100.00
8949;BME280;4509;51.522;9.910;2022-08-21T06:23:53;62159.16;;;-141.57;100.00
8949;BME280;4509;51.522;9.910;2022-08-21T06:26:20;62159.16;;;-141.57;100.00
8949;BME280;4509;51.522;9.910;2022-08-21T06:28:47;62159.16;;;-141.57;100.00
8949;BME280;4509;51.522;9.910;2022-08-21T06:31:18;62159.16;;;-141.57;100.00
8949;BME280;4509;51.522;9.910;2022-08-21T06:33:45;62159.16;;;-141.57;100.00
8949;BME280;4509;51.522;9.910;2022-08-21T06:36:13;62159.16;;;-141.57;100.00
8949;BME280;4509;51.522;9.910;2022-08-21T06:38:40;62159.16;;;-141.57;100.00
8949;BME280;4509;51.522;9.910;2022-08-21T06:41:07;62159.16;;;-141.57;100.00
8949;BME280;4509;51.522;9.910;2022-08-21T06:43:34;62159.16;;;-141.57;100.00
8949;BME280;4509;51.522;9.910;2022-08-21T06:46:00;62159.16;;;-141.57;100.00
8949;BME280;4509;51.522;9.910;2022-08-21T06:48:28;62159.16;;;-141.57;100.00
8949;BME280;4509;51.522;9.910;2022-08-21T06:50:58;62159.16;;;-141.57;100.00
8949;BME280;4509;51.522;9.910;2022-08-21T06:53:24;62159.16;;;-141.57;100.00
8949;BME280;4509;51.522;9.910;2022-08-21T06:55:51;62159.16;;;-141.57;100.00
8949;BME280;4509;51.522;9.910;2022-08-21T06:58:18;62159.16;;;-141.57;100.00
8949;BME280;4509;51.522;9.910;2022-08-21T07:00:48;62159.16;;;-141.57;100.00
8949;BME280;4509;51.522;9.910;2022-08-21T07:03:18;62159.16;;;-141.57;100.00
8949;BME280;4509;51.522;9.910;2022-08-21T07:05:46;62159.16;;;-141.57;100.00
8949;BME280;4509;51.522;9.910;2022-08-21T07:08:13;62159.16;;;-141.57;100.00
8949;BME280;4509;51.522;9.910;2022-08-21T07:10:39;62159.16;;;-141.57;100.00
8949;BME280;4509;51.522;9.910;2022-08-21T07:13:06;62159.16;;;-141.57;100.00
8949;BME280;4509;51.522;9.910;2022-08-21T07:15:33;62159.16;;;-141.57;100.00
8949;BME280;4509;51.522;9.910;2022-08-21T07:18:00;62159.16;;;-141.57;100.00
8949;BME280;4509;51.522;9.910;2022-08-21T07:20:27;62159.16;;;-141.57;100.00
8949;BME280;4509;51.522;9.910;2022-08-21T07:22:58;62159.16;;;-141.57;100.00
8949;BME280;4509;51.522;9.910;2022-08-21T07:25:25;62159.16;;;-141.57;100.00
8949;BME280;4509;51.522;9.910;2022-08-21T07:27:52;62159.16;;;-141.57;100.00
8949;BME280;4509;51.522;9.910;2022-08-21T07:30:19;62159.16;;;-141.57;100.00
8949;BME280;4509;51.522;9.910;2022-08-21T07:32:46;62159.16;;;-141.57;100.00
8949;BME280;4509;51.522;9.910;2022-08-21T07:35:14;62159.16;;;-141.57;100.00
8949;BME280;4509;51.522;9.910;2022-08-21T07:37:41;62159.16;;;-141.57;100.00
8949;BME280;4509;51.522;9.910;2022-08-21T07:40:10;62159.16;;;-141.57;100.00
8949;BME280;4509;51.522;9.910;2022-08-21T07:42:40;62159.16;;;-141.57;100.00
8949;BME280;4509;51.522;9.910;2022-08-21T07:45:08;62159.16;;;-141.57;100.00
8949;BME280;4509;51.522;9.910;2022-08-21T07:47:35;62159.16;;;-141.57;100.00
8949;BME280;4509;51.522;9.910;2022-08-21T07:50:04;62159.16;;;-141.57;100.00
8949;BME280;4509;51.522;9.910;2022-08-21T07:52:31;62159.16;;;-141.57;100.00
8949;BME280;4509;51.522;9.910;2022-08-21T07:54:58;62159.16;;;-141.57;100.00
8949;BME280;4509;51.522;9.910;2022-08-21T07:57:26;62159.16;;;-141.57;100.00
8949;BME280;4509;51.522;9.910;2022-08-21T07:59:54;62159.16;;;-141.57;100.00
8949;BME280;4509;51.522;9.910;2022-08-21T08:02:24;62159.16;;;-141.57;100.00
8949;BME280;4509;51.522;9.910;2022-08-21T08:04:51;62159.16;;;-141.57;100.00
8949;BME280;4509;51.522;9.910;2022-08-21T08:07:17;62159.16;;;-141.57;100.00
8949;BME280;4509;51.522;9.910;2022-08-21T08:09:44;62159.16;;;-141.57;100.00
8949;BME280;4509;51.522;9.910;2022-08-21T08:12:11;62159.16;;;-141.57;100.00
8949;BME280;4509;51.522;9.910;2022-08-21T08:14:39;62159.16;;;-141.57;100.00
8949;BME280;4509;51.522;9.910;2022-08-21T08:17:06;62159.16;;;-141.57;100.00
8949;BME280;4509;51.522;9.910;2022-08-21T08:19:33;62159.16;;;-141.57;100.00
8949;BME280;4509;51.522;9.910;2022-08-21T08:22:00;62159.16;;;-141.57;100.00
8949;BME280;4509;51.522;9.910;2022-08-21T08:24:27;62159.16;;;-141.57;100.00
8949;BME280;4509;51.522;9.910;2022-08-21T08:26:54;62159.16;;;-141.57;100.00
8949;BME280;4509;51.522;9.910;2022-08-21T08:29:22;62159.16;;;-141.57;100.00
8949;BME280;4509;51.522;9.910;2022-08-21T08:31:50;62159.16;;;-141.57;100.00
8949;BME280;4509;51.522;9.910;2022-08-21T08:34:17;62159.16;;;-141.57;100.00
8949;BME280;4509;51.522;9.910;2022-08-21T08:36:45;62159.16;;;-141.57;100.00
8949;BME280;4509;51.522;9.910;2022-08-21T08:39:11;62159.16;;;-141.57;100.00
8949;BME280;4509;51.522;9.910;2022-08-21T08:41:39;62159.16;;;-141.57;100.00
8949;BME280;4509;51.522;9.910;2022-08-21T08:44:07;62159.16;;;-141.57;100.00
8949;BME280;4509;51.522;9.910;2022-08-21T08:46:37;62159.16;;;-141.57;100.00
8949;BME280;4509;51.522;9.910;2022-08-21T08:49:11;62159.16;;;-141.57;100.00
8949;BME280;4509;51.522;9.910;2022-08-21T08:51:44;62159.16;;;-141.57;100.00
8949;BME280;4509;51.522;9.910;2022-08-21T08:54:17;62159.16;;;-141.57;100.00
8949;BME280;4509;51.522;9.910;2022-08-21T08:56:47;62159.16;;;-141.57;100.00
8949;BME280;4509;51.522;9.910;2022-08-21T08:59:18;62159.16;;;-141.57;100.00
8949;BME280;4509;51.522;9.910;2022-08-21T09:01:47;62159.16;;;-141.57;100.00
8949;BME280;4509;51.522;9.910;2022-08-21T09:04:20;62159.16;;;-141.57;100.00
8949;BME280;4509;51.522;9.910;2022-08-21T09:06:58;62159.16;;;-141.57;100.00
8949;BME280;4509;51.522;9.910;2022-08-21T09:09:46;62159.16;;;-141.57;100.00
8949;BME280;4509;51.522;9.910;2022-08-21T09:12:33;62159.16;;;-141.57;100.00
8949;BME280;4509;51.522;9.910;2022-08-21T09:15:06;62159.16;;;-141.57;100.00
8949;BME280;4509;51.522;9.910;2022-08-21T09:17:53;62159.16;;;-141.57;100.00
8949;BME280;4509;51.522;9.910;2022-08-21T09:20:32;62159.16;;;-141.57;100.00
8949;BME280;4509;51.522;9.910;2022-08-21T09:23:13;62159.16;;;-141.57;100.00
8949;BME280;4509;51.522;9.910;2022-08-21T09:25:53;62159.16;;;-141.57;100.00
8949;BME280;4509;51.522;9.910;2022-08-21T09:28:25;62159.16;;;-141.57;100.00
8949;BME280;4509;51.522;9.910;2022-08-21T09:30:54;62159.16;;;-141.57;100.00
8949;BME280;4509;51.522;9.910;2022-08-21T09:33:21;62159.16;;;-141.57;100.00
8949;BME280;4509;51.522;9.910;2022-08-21T09:35:52;62159.16;;;-141.57;100.00
8949;BME280;4509;51.522;9.910;2022-08-21T09:38:27;62159.16;;;-141.57;100.00
8949;BME280;4509;51.522;9.910;2022-08-21T09:41:00;62159.16;;;-141.57;100.00
8949;BME280;4509;51.522;9.910;2022-08-21T09:43:28;62159.16;;;-141.57;100.00
8949;BME280;4509;51.522;9.910;2022-08-21T09:46:09;62159.16;;;-141.57;100.00
8949;BME280;4509;51.522;9.910;2022-08-21T09:48:41;62159.16;;;-141.57;100.00
8949;BME280;4509;51.522;9.910;2022-08-21T09:51:13;62159.16;;;-141.57;100.00
8949;BME280;4509;51.522;9.910;2022-08-21T09:53:44;62159.16;;;-141.57;100.00
8949;BME280;4509;51.522;9.910;2022-08-21T09:56:36;62159.16;;;-141.57;100.00
8949;BME280;4509;51.522;9.910;2022-08-21T09:59:27;62159.16;;;-141.57;100.00
8949;BME280;4509;51.522;9.910;2022-08-21T10:01:57;62159.16;;;-141.57;100.00
8949;BME280;4509;51.522;9.910;2022-08-21T10:04:28;62159.16;;;-141.57;100.00
8949;BME280;4509;51.522;9.910;2022-08-21T10:07:07;62159.16;;;-141.57;100.00
8949;BME280;4509;51.522;9.910;2022-08-21T10:09:35;62159.16;;;-141.57;100.00
8949;BME280;4509;51.522;9.910;2022-08-21T10:14:42;62159.16;;;-141.57;100.00
8949;BME280;4509;51.522;9.910;2022-08-21T10:17:16;62159.16;;;-141.57;100.00
8949;BME280;4509;51.522;9.910;2022-08-21T10:19:51;62159.16;;;-141.57;100.00
8949;BME280;4509;51.522;9.910;2022-08-21T10:22:31;62159.16;;;-141.57;100.00
8949;BME280;4509;51.522;9.910;2022-08-21T10:25:07;62159.16;;;-141.57;100.00
8949;BME280;4509;51.522;9.910;2022-08-21T10:27:43;62159.16;;;-141.57;100.00
8949;BME280;4509;51.522;9.910;2022-08-21T10:30:16;62159.16;;;-141.57;100.00
8949;BME280;4509;51.522;9.910;2022-08-21T10:32:59;62159.16;;;-141.57;100.00
8949;BME280;4509;51.522;9.910;2022-08-21T10:35:29;62159.16;;;-141.57;100.00
8949;BME280;4509;51.522;9.910;2022-08-21T10:40:56;62159.16;;;-141.57;100.00
8949;BME280;4509;51.522;9.910;2022-08-21T10:43:33;62159.16;;;-141.57;100.00
8949;BME280;4509;51.522;9.910;2022-08-21T10:46:17;62159.16;;;-141.57;100.00
8949;BME280;4509;51.522;9.910;2022-08-21T10:48:50;62159.16;;;-141.57;100.00
8949;BME280;4509;51.522;9.910;2022-08-21T10:51:26;62159.16;;;-141.57;100.00
8949;BME280;4509;51.522;9.910;2022-08-21T10:54:00;62159.16;;;-141.57;100.00
8949;BME280;4509;51.522;9.910;2022-08-21T10:56:32;62159.16;;;-141.57;100.00
8949;BME280;4509;51.522;9.910;2022-08-21T10:59:24;62159.16;;;-141.57;100.00
8949;BME280;4509;51.522;9.910;2022-08-21T11:01:57;62159.16;;;-141.57;100.00
8949;BME280;4509;51.522;9.910;2022-08-21T11:04:30;62159.16;;;-141.57;100.00
8949;BME280;4509;51.522;9.910;2022-08-21T11:07:03;62159.16;;;-141.57;100.00
8949;BME280;4509;51.522;9.910;2022-08-21T11:09:37;62159.16;;;-141.57;100.00
8949;BME280;4509;51.522;9.910;2022-08-21T11:12:16;62159.16;;;-141.57;100.00
8949;BME280;4509;51.522;9.910;2022-08-21T11:14:51;62159.16;;;-141.57;100.00
8949;BME280;4509;51.522;9.910;2022-08-21T11:17:24;62159.16;;;-141.57;100.00
8949;BME280;4509;51.522;9.910;2022-08-21T11:20:07;62159.16;;;-141.57;100.00
8949;BME280;4509;51.522;9.910;2022-08-21T11:22:41;62159.16;;;-141.57;100.00
8949;BME280;4509;51.522;9.910;2022-08-21T11:25:17;62159.16;;;-141.57;100.00
8949;BME280;4509;51.522;9.910;2022-08-21T11:27:51;62159.16;;;-141.57;100.00
8949;BME280;4509;51.522;9.910;2022-08-21T11:30:19;62159.16;;;-141.57;100.00
8949;BME280;4509;51.522;9.910;2022-08-21T11:33:07;62159.16;;;-141.57;100.00
8949;BME280;4509;51.522;9.910;2022-08-21T11:35:43;62159.16;;;-141.57;100.00
8949;BME280;4509;51.522;9.910;2022-08-21T11:38:25;62159.16;;;-141.57;100.00
8949;BME280;4509;51.522;9.910;2022-08-21T11:41:06;62159.16;;;-141.57;100.00
8949;BME280;4509;51.522;9.910;2022-08-21T11:43:39;62159.16;;;-141.57;100.00
8949;BME280;4509;51.522;9.910;2022-08-21T11:46:31;62159.16;;;-141.57;100.00
8949;BME280;4509;51.522;9.910;2022-08-21T11:49:23;62159.16;;;-141.57;100.00
8949;BME280;4509;51.522;9.910;2022-08-21T11:52:03;62159.16;;;-141.57;100.00
8949;BME280;4509;51.522;9.910;2022-08-21T11:54:37;62159.16;;;-141.57;100.00
8949;BME280;4509;51.522;9.910;2022-08-21T11:57:18;62159.16;;;-141.57;100.00
8949;BME280;4509;51.522;9.910;2022-08-21T11:59:51;62159.16;;;-141.57;100.00
8949;BME280;4509;51.522;9.910;2022-08-21T12:02:22;62159.16;;;-141.57;100.00
8949;BME280;4509;51.522;9.910;2022-08-21T12:05:00;62159.16;;;-141.57;100.00
8949;BME280;4509;51.522;9.910;2022-08-21T12:07:32;62159.16;;;-141.57;100.00
8949;BME280;4509;51.522;9.910;2022-08-21T12:10:17;62159.16;;;-141.57;100.00
8949;BME280;4509;51.522;9.910;2022-08-21T12:12:47;62159.16;;;-141.57;100.00
8949;BME280;4509;51.522;9.910;2022-08-21T12:15:26;62159.16;;;-141.57;100.00
8949;BME280;4509;51.522;9.910;2022-08-21T12:18:00;62159.16;;;-141.57;100.00
8949;BME280;4509;51.522;9.910;2022-08-21T12:20:42;62159.16;;;-141.57;100.00
8949;BME280;4509;51.522;9.910;2022-08-21T12:23:23;62159.16;;;-141.57;100.00
8949;BME280;4509;51.522;9.910;2022-08-21T12:29:16;62159.16;;;-141.57;100.00
8949;BME280;4509;51.522;9.910;2022-08-21T12:31:55;62159.16;;;-141.57;100.00
8949;BME280;4509;51.522;9.910;2022-08-21T12:34:32;62159.16;;;-141.57;100.00
8949;BME280;4509;51.522;9.910;2022-08-21T12:37:09;62159.16;;;-141.57;100.00
8949;BME280;4509;51.522;9.910;2022-08-21T12:39:46;62159.16;;;-141.57;100.00
8949;BME280;4509;51.522;9.910;2022-08-21T12:42:16;62159.16;;;-141.57;100.00
8949;BME280;4509;51.522;9.910;2022-08-21T12:44:51;62159.16;;;-141.57;100.00
8949;BME280;4509;51.522;9.910;2022-08-21T12:47:29;62159.16;;;-141.57;100.00
8949;BME280;4509;51.522;9.910;2022-08-21T12:50:03;62159.16;;;-141.57;100.00
8949;BME280;4509;51.522;9.910;2022-08-21T12:52:39;62159.16;;;-141.57;100.00
8949;BME280;4509;51.522;9.910;2022-08-21T12:55:13;62159.16;;;-141.57;100.00
8949;BME280;4509;51.522;9.910;2022-08-21T12:57:43;62159.16;;;-141.57;100.00
8949;BME280;4509;51.522;9.910;2022-08-21T13:00:13;62159.16;;;-141.57;100.00
8949;BME280;4509;51.522;9.910;2022-08-21T13:02:47;62159.16;;;-141.57;100.00
8949;BME280;4509;51.522;9.910;2022-08-21T13:05:48;62159.16;;;-141.57;100.00
8949;BME280;4509;51.522;9.910;2022-08-21T13:08:20;62159.16;;;-141.57;100.00
8949;BME280;4509;51.522;9.910;2022-08-21T13:11:02;62159.16;;;-141.57;100.00
8949;BME280;4509;51.522;9.910;2022-08-21T13:13:51;62159.16;;;-141.57;100.00
8949;BME280;4509;51.522;9.910;2022-08-21T13:16:26;62159.16;;;-141.57;100.00
8949;BME280;4509;51.522;9.910;2022-08-21T13:18:57;62159.16;;;-141.57;100.00
8949;BME280;4509;51.522;9.910;2022-08-21T13:21:29;62159.16;;;-141.57;100.00